createdAt,value
2023-03-26T18:05:06.404Z,21.11
2023-03-26T18:06:06.319Z,21.05
2023-03-26T18:07:06.461Z,21.02
2023-03-26T18:08:06.307Z,20.98
2023-03-26T18:09:07.229Z,21.01
2023-03-26T18:10:06.298Z,21.04
2023-03-26T18:11:06.285Z,21.02
2023-03-26T18:12:06.279Z,21.09
2023-03-26T18:13:06.278Z,21.11
2023-03-26T18:14:06.271Z,21.04
2023-03-26T18:15:06.273Z,21.06
2023-03-26T18:16:06.324Z,21.13
2023-03-26T18:17:06.307Z,21.16
2023-03-26T18:18:06.256Z,21.16
2023-03-26T18:19:06.255Z,21.23
2023-03-26T18:20:06.255Z,21.09
2023-03-26T18:21:06.281Z,21.09
2023-03-26T18:22:06.257Z,21.26
2023-03-26T18:23:06.258Z,21.21
2023-03-26T18:24:06.252Z,21.26
2023-03-26T18:25:06.262Z,21.29
2023-03-26T18:26:06.254Z,21.23
2023-03-26T18:27:06.255Z,21.26
2023-03-26T18:28:06.252Z,21.20
2023-03-26T18:29:06.259Z,21.21
2023-03-26T18:30:06.255Z,21.34
2023-03-26T18:31:06.256Z,21.27
2023-03-26T18:32:06.305Z,21.21
2023-03-26T18:33:06.301Z,21.26
2023-03-26T18:34:06.260Z,21.29
2023-03-26T18:35:06.260Z,21.26
2023-03-26T18:36:06.259Z,21.19
2023-03-26T18:37:06.543Z,21.26
2023-03-26T18:38:06.267Z,21.26
2023-03-26T18:39:06.269Z,21.27
2023-03-26T18:40:06.265Z,21.24
2023-03-26T18:41:06.271Z,21.21
2023-03-26T18:42:06.322Z,21.30
2023-03-26T18:43:06.289Z,21.16
2023-03-26T18:44:06.279Z,21.19
2023-03-26T18:45:06.276Z,21.13
2023-03-26T18:46:06.330Z,21.26
2023-03-26T18:47:06.279Z,21.11
2023-03-26T18:48:06.316Z,21.14
2023-03-26T18:49:06.284Z,21.16
2023-03-26T18:50:06.288Z,21.17
2023-03-26T18:51:06.287Z,21.11
2023-03-26T18:52:06.289Z,21.20
2023-03-26T18:53:06.308Z,21.13
2023-03-26T18:54:06.293Z,21.11
2023-03-26T18:55:06.298Z,21.23
2023-03-26T18:56:06.294Z,21.14
2023-03-26T18:57:06.346Z,21.17
2023-03-26T18:58:06.308Z,21.23
2023-03-26T18:59:06.302Z,21.27
2023-03-26T19:00:06.301Z,21.21
2023-03-26T19:01:10.148Z,21.30
2023-03-26T19:02:06.608Z,21.26
2023-03-26T19:03:06.416Z,21.26
2023-03-26T19:04:06.310Z,21.29
2023-03-26T19:05:06.319Z,21.26
2023-03-26T19:06:06.316Z,21.29
2023-03-26T19:07:06.316Z,21.27
2023-03-26T19:08:06.341Z,21.30
2023-03-26T19:09:13.485Z,21.26
2023-03-26T19:10:06.326Z,21.24
2023-03-26T19:11:06.332Z,21.30
2023-03-26T19:12:06.332Z,21.29
2023-03-26T19:13:06.349Z,21.24
2023-03-26T19:14:06.345Z,21.27
2023-03-26T19:15:06.360Z,21.24
2023-03-26T19:16:06.357Z,21.27
2023-03-26T19:17:06.377Z,21.27
2023-03-26T19:18:06.399Z,21.27
2023-03-26T19:19:06.355Z,21.29
2023-03-26T19:20:06.346Z,21.30
2023-03-26T19:21:06.354Z,21.32
2023-03-26T19:22:06.353Z,21.29
2023-03-26T19:23:06.355Z,21.34
2023-03-26T19:24:06.360Z,21.34
2023-03-26T19:25:06.386Z,21.39
2023-03-26T19:26:06.365Z,21.23
2023-03-26T19:27:06.367Z,21.24
2023-03-26T19:28:06.373Z,21.32
2023-03-26T19:29:06.370Z,21.24
2023-03-26T19:30:06.373Z,21.20
2023-03-26T19:31:06.400Z,21.26
2023-03-26T19:32:06.396Z,21.24
2023-03-26T19:33:13.493Z,21.20
2023-03-26T19:34:06.389Z,21.20
2023-03-26T19:35:06.380Z,21.23
2023-03-26T19:36:06.398Z,21.32
2023-03-26T19:37:06.404Z,21.24
2023-03-26T19:38:06.393Z,21.19
2023-03-26T19:39:06.394Z,21.32
2023-03-26T19:40:06.404Z,21.27
2023-03-26T19:41:06.431Z,21.23
2023-03-26T19:42:06.572Z,21.26
2023-03-26T19:43:06.411Z,21.34
2023-03-26T19:44:06.414Z,21.24
2023-03-26T19:45:06.410Z,21.21
2023-03-26T19:46:06.435Z,21.29
2023-03-26T19:47:06.464Z,21.30
2023-03-26T19:48:15.056Z,21.23
2023-03-26T19:49:06.490Z,21.27
2023-03-26T19:50:06.431Z,21.16
2023-03-26T19:51:06.428Z,21.13
2023-03-26T19:52:06.475Z,21.17
2023-03-26T19:53:15.401Z,21.14
2023-03-26T19:54:06.435Z,21.19
2023-03-26T19:55:06.439Z,21.14
2023-03-26T19:56:06.543Z,21.13
2023-03-26T19:57:06.574Z,21.11
2023-03-26T19:58:06.446Z,21.16
2023-03-26T19:59:06.444Z,21.19
2023-03-26T20:00:06.447Z,21.24
2023-03-26T20:01:06.452Z,21.09
2023-03-26T20:02:07.405Z,21.14
2023-03-26T20:03:06.624Z,21.11
2023-03-26T20:04:06.521Z,21.24
2023-03-26T20:05:06.461Z,21.16
2023-03-26T20:06:06.463Z,21.19
2023-03-26T20:07:06.469Z,21.08
2023-03-26T20:08:08.845Z,21.13
2023-03-26T20:09:06.486Z,21.17
2023-03-26T20:10:06.503Z,21.11
2023-03-26T20:11:06.469Z,21.16
2023-03-26T20:12:06.487Z,21.13
2023-03-26T20:13:06.501Z,21.16
2023-03-26T20:14:06.482Z,21.13
2023-03-26T20:15:06.486Z,21.14
2023-03-26T20:16:06.591Z,21.09
2023-03-26T20:17:06.642Z,21.13
2023-03-26T20:18:06.546Z,21.17
2023-03-26T20:19:06.499Z,21.17
2023-03-26T20:20:06.509Z,21.11
2023-03-26T20:21:06.502Z,21.17
2023-03-26T20:22:07.985Z,21.16
2023-03-26T20:23:06.511Z,21.11
2023-03-26T20:24:06.518Z,21.16
2023-03-26T20:25:06.513Z,21.14
2023-03-26T20:26:06.516Z,21.11
2023-03-26T20:27:06.512Z,21.16
2023-03-26T20:28:06.518Z,21.20
2023-03-26T20:29:06.556Z,21.11
2023-03-26T20:30:07.233Z,21.09
2023-03-26T20:31:06.550Z,21.17
2023-03-26T20:32:06.517Z,21.16
2023-03-26T20:33:12.735Z,21.11
2023-03-26T20:34:06.525Z,21.17
2023-03-26T20:35:06.526Z,21.14
2023-03-26T20:36:06.536Z,21.23
2023-03-26T20:37:06.570Z,21.16
2023-03-26T20:38:06.538Z,21.14
2023-03-26T20:39:06.606Z,21.16
2023-03-26T20:40:06.538Z,21.13
2023-03-26T20:41:06.538Z,21.16
2023-03-26T20:42:06.844Z,21.11
2023-03-26T20:43:06.543Z,21.19
2023-03-26T20:44:06.553Z,21.17
2023-03-26T20:45:06.571Z,21.17
2023-03-26T20:46:06.556Z,21.13
2023-03-26T20:47:06.606Z,21.11
2023-03-26T20:48:06.621Z,21.17
2023-03-26T20:49:06.564Z,21.11
2023-03-26T20:50:06.558Z,21.11
2023-03-26T20:51:06.878Z,21.21
2023-03-26T20:52:06.563Z,21.06
2023-03-26T20:53:06.560Z,21.14
2023-03-26T20:54:06.613Z,21.13
2023-03-26T20:55:06.577Z,21.14
2023-03-26T20:56:07.413Z,21.20
2023-03-26T20:57:06.663Z,21.16
2023-03-26T20:58:06.598Z,21.17
2023-03-26T20:59:11.043Z,21.16
2023-03-26T21:00:06.579Z,21.14
2023-03-26T21:01:06.863Z,21.13
2023-03-26T21:02:06.627Z,21.13
2023-03-26T21:03:06.678Z,21.19
2023-03-26T21:04:06.631Z,21.11
2023-03-26T21:05:06.592Z,21.13
2023-03-26T21:06:06.598Z,21.09
2023-03-26T21:07:15.039Z,21.26
2023-03-26T21:08:06.602Z,21.16
2023-03-26T21:09:06.600Z,21.13
2023-03-26T21:10:06.609Z,21.17
2023-03-26T21:11:06.616Z,21.13
2023-03-26T21:12:06.605Z,21.11
2023-03-26T21:13:06.610Z,21.09
2023-03-26T21:14:06.614Z,21.13
2023-03-26T21:15:13.433Z,21.09
2023-03-26T21:16:06.661Z,21.17
2023-03-26T21:17:06.697Z,21.14
2023-03-26T21:18:06.720Z,21.04
2023-03-26T21:19:06.628Z,21.17
2023-03-26T21:20:06.641Z,21.06
2023-03-26T21:21:17.964Z,21.05
2023-03-26T21:22:06.782Z,21.06
2023-03-26T21:23:06.633Z,21.04
2023-03-26T21:24:06.639Z,21.16
2023-03-26T21:25:06.638Z,21.05
2023-03-26T21:26:06.648Z,21.04
2023-03-26T21:27:06.744Z,21.19
2023-03-26T21:28:06.641Z,21.13
2023-03-26T21:29:06.649Z,21.04
2023-03-26T21:30:06.648Z,21.05
2023-03-26T21:31:06.655Z,21.01
2023-03-26T21:32:06.806Z,21.05
2023-03-26T21:33:06.737Z,21.04
2023-03-26T21:34:06.658Z,21.11
2023-03-26T21:35:06.675Z,21.13
2023-03-26T21:36:06.776Z,21.05
2023-03-26T21:37:06.664Z,21.13
2023-03-26T21:38:06.671Z,21.06
2023-03-26T21:39:06.714Z,21.08
2023-03-26T21:40:06.675Z,21.08
2023-03-26T21:41:06.677Z,21.02
2023-03-26T21:42:06.676Z,21.01
2023-03-26T21:43:06.684Z,21.04
2023-03-26T21:44:06.683Z,21.08
2023-03-26T21:45:06.693Z,21.19
2023-03-26T21:46:06.741Z,21.09
2023-03-26T21:47:08.459Z,21.04
2023-03-26T21:48:06.766Z,21.16
2023-03-26T21:49:06.731Z,21.11
2023-03-26T21:50:06.693Z,20.98
2023-03-26T21:51:06.699Z,21.04
2023-03-26T21:52:06.758Z,20.98
2023-03-26T21:53:06.709Z,21.11
2023-03-26T21:54:06.706Z,20.99
2023-03-26T21:55:06.709Z,21.11
2023-03-26T21:56:06.708Z,21.02
2023-03-26T21:57:06.744Z,21.04
2023-03-26T21:58:06.721Z,21.01
2023-03-26T21:59:06.712Z,21.01
2023-03-26T22:00:06.725Z,20.95
2023-03-26T22:01:06.799Z,21.01
2023-03-26T22:02:06.723Z,21.09
2023-03-26T22:03:06.790Z,20.95
2023-03-26T22:04:06.732Z,21.02
2023-03-26T22:05:06.760Z,20.98
2023-03-26T22:06:06.731Z,21.02
2023-03-26T22:07:06.734Z,21.06
2023-03-26T22:08:06.765Z,20.98
2023-03-26T22:09:06.750Z,20.95
2023-03-26T22:10:06.738Z,21.05
2023-03-26T22:11:06.746Z,21.02
2023-03-26T22:12:06.758Z,20.99
2023-03-26T22:13:06.748Z,21.08
2023-03-26T22:14:06.747Z,21.02
2023-03-26T22:15:06.753Z,21.02
2023-03-26T22:16:06.813Z,20.93
2023-03-26T22:17:06.755Z,20.98
2023-03-26T22:18:06.782Z,20.96
2023-03-26T22:19:06.768Z,21.04
2023-03-26T22:20:06.771Z,21.01
2023-03-26T22:21:06.792Z,21.01
2023-03-26T22:22:07.026Z,21.09
2023-03-26T22:23:06.777Z,21.05
2023-03-26T22:24:06.775Z,21.09
2023-03-26T22:25:06.771Z,21.08
2023-03-26T22:26:06.793Z,21.04
2023-03-26T22:27:06.782Z,21.01
2023-03-26T22:28:06.792Z,21.04
2023-03-26T22:29:06.799Z,20.98
2023-03-26T22:30:06.791Z,20.96
2023-03-26T22:31:06.819Z,21.05
2023-03-26T22:32:06.854Z,21.01
2023-03-26T22:33:06.859Z,21.13
2023-03-26T22:34:06.800Z,21.05
2023-03-26T22:35:06.797Z,21.06
2023-03-26T22:36:06.807Z,21.13
2023-03-26T22:37:06.826Z,20.98
2023-03-26T22:38:06.807Z,21.09
2023-03-26T22:39:06.818Z,20.98
2023-03-26T22:40:06.812Z,21.01
2023-03-26T22:41:06.817Z,21.01
2023-03-26T22:42:06.968Z,21.02
2023-03-26T22:43:06.812Z,20.96
2023-03-26T22:44:18.954Z,20.98
2023-03-26T22:45:06.832Z,21.04
2023-03-26T22:46:06.848Z,21.02
2023-03-26T22:47:06.835Z,21.01
2023-03-26T22:48:06.871Z,20.99
2023-03-26T22:49:06.833Z,20.96
2023-03-26T22:50:06.829Z,20.96
2023-03-26T22:51:06.832Z,20.98
2023-03-26T22:52:06.831Z,21.04
2023-03-26T22:53:06.857Z,21.08
2023-03-26T22:54:06.841Z,20.96
2023-03-26T22:55:06.841Z,21.01
2023-03-26T22:56:06.844Z,20.99
2023-03-26T22:57:06.903Z,20.95
2023-03-26T22:58:06.866Z,20.99
2023-03-26T22:59:06.849Z,20.98
2023-03-26T23:00:06.846Z,21.02
2023-03-26T23:01:07.985Z,20.93
2023-03-26T23:02:06.944Z,21.05
2023-03-26T23:03:06.907Z,20.91
2023-03-26T23:04:06.882Z,20.99
2023-03-26T23:05:06.878Z,21.01
2023-03-26T23:06:06.903Z,21.05
2023-03-26T23:07:06.867Z,20.93
2023-03-26T23:08:06.868Z,21.01
2023-03-26T23:09:06.889Z,21.02
2023-03-26T23:10:06.872Z,21.04
2023-03-26T23:11:06.871Z,21.05
2023-03-26T23:12:06.871Z,21.02
2023-03-26T23:13:06.872Z,20.99
2023-03-26T23:14:06.880Z,21.04
2023-03-26T23:15:06.890Z,20.99
2023-03-26T23:16:06.918Z,20.99
2023-03-26T23:17:06.880Z,20.87
2023-03-26T23:18:06.940Z,21.02
2023-03-26T23:19:06.885Z,21.01
2023-03-26T23:20:06.889Z,21.04
2023-03-26T23:21:11.761Z,20.99
2023-03-26T23:22:06.898Z,20.99
2023-03-26T23:23:06.896Z,21.04
2023-03-26T23:24:06.916Z,20.90
2023-03-26T23:25:06.918Z,20.95
2023-03-26T23:26:06.970Z,20.91
2023-03-26T23:27:06.920Z,20.90
2023-03-26T23:28:06.906Z,20.98
2023-03-26T23:29:06.904Z,21.05
2023-03-26T23:30:06.917Z,20.93
2023-03-26T23:31:06.992Z,20.96
2023-03-26T23:32:23.687Z,21.02
2023-03-26T23:33:06.950Z,20.99
2023-03-26T23:34:06.936Z,21.01
2023-03-26T23:35:06.937Z,20.89
2023-03-26T23:36:07.472Z,20.98
2023-03-26T23:37:07.127Z,21.02
2023-03-26T23:38:06.928Z,21.04
2023-03-26T23:39:06.931Z,20.90
2023-03-26T23:40:06.935Z,20.93
2023-03-26T23:41:06.967Z,20.89
2023-03-26T23:42:06.937Z,20.98
2023-03-26T23:43:06.988Z,20.89
2023-03-26T23:44:06.977Z,20.90
2023-03-26T23:45:06.944Z,20.98
2023-03-26T23:46:06.990Z,20.99
2023-03-26T23:47:06.948Z,21.01
2023-03-26T23:48:07.022Z,20.95
2023-03-26T23:49:06.948Z,20.93
2023-03-26T23:50:06.972Z,20.96
2023-03-26T23:51:06.961Z,20.93
2023-03-26T23:52:06.953Z,20.89
2023-03-26T23:53:06.952Z,20.89
2023-03-26T23:54:06.958Z,20.90
2023-03-26T23:55:06.964Z,20.95
2023-03-26T23:56:06.963Z,20.84
2023-03-26T23:57:07.071Z,20.91
2023-03-26T23:58:06.968Z,20.93
2023-03-26T23:59:06.968Z,20.86
